Time;durP1;ratioP1;P1;durP2;ratioP2;P2;SDS_P1;SDS_P2;PMS_P1;PMS_P2;Temp;Humidity;BMP_temperature;BMP_pressure;BME280_temperature;BME280_humidity;BME280_pressure;Samples;Min_cycle;Max_cycle;Signal;HPM_P1;HPM_P2
2024/04/16 00:01:55;;;;;;;14.63;1.80;;;6.90;99.90;;;;;;5317241;26;20078;-81
2024/04/16 00:04:21;;;;;;;13.47;2.03;;;6.90;99.90;;;;;;5317810;26;20001;-78
2024/04/16 00:06:47;;;;;;;11.63;2.47;;;6.90;99.90;;;;;;5317644;26;20012;-77
2024/04/16 00:09:13;;;;;;;17.87;1.80;;;6.90;99.90;;;;;;5347593;26;20349;-75
2024/04/16 00:11:38;;;;;;;13.87;2.13;;;6.90;99.90;;;;;;5348351;26;20457;-77
2024/04/16 00:14:04;;;;;;;9.63;1.37;;;7.00;99.90;;;;;;5317742;26;20371;-79
2024/04/16 00:16:29;;;;;;;16.53;1.50;;;7.00;99.90;;;;;;5317400;26;20001;-76
2024/04/16 00:18:55;;;;;;;14.50;2.10;;;7.10;99.90;;;;;;5348180;26;20019;-75
2024/04/16 00:21:21;;;;;;;15.47;1.53;;;7.20;99.90;;;;;;5347877;26;20004;-77
2024/04/16 00:23:46;;;;;;;9.20;1.00;;;7.20;99.90;;;;;;5346984;26;20036;-80
2024/04/16 00:26:12;;;;;;;7.70;2.10;;;7.30;99.90;;;;;;5347749;26;20001;-80
2024/04/16 00:28:38;;;;;;;15.77;2.20;;;7.30;99.90;;;;;;5317590;26;20136;-80
2024/04/16 00:31:03;;;;;;;11.83;1.77;;;7.30;99.90;;;;;;5317142;26;20001;-80
2024/04/16 00:33:29;;;;;;;16.67;2.03;;;7.40;99.90;;;;;;5317551;26;20012;-79
2024/04/16 00:35:55;;;;;;;19.37;2.13;;;7.50;99.90;;;;;;5347721;26;20004;-80
2024/04/16 00:38:22;;;;;;;10.60;1.63;;;7.50;99.80;;;;;;5348058;26;20386;-78
2024/04/16 00:40:47;;;;;;;11.73;1.93;;;7.50;99.60;;;;;;5317120;26;20452;-77
2024/04/16 00:43:18;;;;;;;6.87;1.27;;;7.50;99.60;;;;;;5317323;26;20016;-78
2024/04/16 00:45:58;;;;;;;14.17;1.70;;;7.60;99.40;;;;;;5347337;26;20019;-79
2024/04/16 00:48:26;;;;;;;10.13;1.60;;;7.60;99.20;;;;;;5347889;26;20016;-77
2024/04/16 00:50:54;;;;;;;13.13;1.70;;;7.70;99.10;;;;;;5347427;26;20016;-77
2024/04/16 00:53:20;;;;;;;9.33;1.20;;;7.70;99.10;;;;;;5316989;26;20438;-75
2024/04/16 00:55:47;;;;;;;10.20;1.60;;;7.70;98.90;;;;;;5347839;26;20083;-76
2024/04/16 00:58:16;;;;;;;13.23;1.27;;;7.70;99.00;;;;;;5345485;26;20015;-77
2024/04/16 01:00:43;;;;;;;8.53;1.33;;;7.70;99.10;;;;;;5316633;26;20001;-75
2024/04/16 01:03:09;;;;;;;12.33;1.50;;;7.70;99.20;;;;;;5316906;26;20005;-76
2024/04/16 01:05:35;;;;;;;8.67;1.30;;;7.80;99.50;;;;;;5316883;26;20005;-78
2024/04/16 01:08:01;;;;;;;12.13;1.90;;;7.70;99.90;;;;;;5347604;26;20440;-82
2024/04/16 01:10:28;;;;;;;9.53;1.20;;;7.70;99.90;;;;;;5347437;26;20011;-81
2024/04/16 01:12:53;;;;;;;7.67;1.13;;;7.60;99.90;;;;;;5317041;26;20448;-76
2024/04/16 01:15:19;;;;;;;7.73;0.90;;;7.40;99.90;;;;;;5347118;26;20001;-79
2024/04/16 01:17:45;;;;;;;8.83;1.33;;;7.40;99.90;;;;;;5345362;26;20001;-78
2024/04/16 01:20:12;;;;;;;11.53;1.93;;;7.30;99.90;;;;;;5347046;26;20008;-77
2024/04/16 01:22:38;;;;;;;9.40;1.27;;;7.30;99.90;;;;;;5347260;26;20453;-79
2024/04/16 01:25:03;;;;;;;11.93;1.83;;;7.30;99.90;;;;;;5347504;26;20082;-80
2024/04/16 01:27:29;;;;;;;7.20;1.00;;;7.20;99.90;;;;;;5347078;26;20013;-78
2024/04/16 01:29:55;;;;;;;11.97;1.53;;;7.20;99.90;;;;;;5345372;26;20411;-79
2024/04/16 01:32:21;;;;;;;10.53;1.67;;;7.10;99.90;;;;;;5316394;26;20001;-75
2024/04/16 01:34:47;;;;;;;7.90;1.10;;;7.20;99.90;;;;;;5347039;26;20004;-77
2024/04/16 01:37:12;;;;;;;11.23;2.03;;;7.10;99.90;;;;;;5346762;26;20001;-79
2024/04/16 01:39:38;;;;;;;8.03;1.40;;;7.10;99.90;;;;;;5316375;26;20001;-79
2024/04/16 01:42:04;;;;;;;5.37;1.20;;;7.20;99.90;;;;;;5345993;26;20001;-79
2024/04/16 01:44:31;;;;;;;8.13;1.27;;;7.10;99.90;;;;;;5316192;26;20046;-81
2024/04/16 01:46:57;;;;;;;6.20;1.07;;;7.10;99.90;;;;;;5316187;26;20001;-82
2024/04/16 01:49:23;;;;;;;8.37;1.40;;;7.10;99.90;;;;;;5346473;26;20001;-79
2024/04/16 01:51:49;;;;;;;10.23;1.10;;;7.20;99.90;;;;;;5347462;26;20001;-77
2024/04/16 01:54:14;;;;;;;8.50;1.00;;;7.20;99.90;;;;;;5346705;26;20040;-77
2024/04/16 01:56:40;;;;;;;10.20;1.00;;;7.20;99.90;;;;;;5346798;26;20008;-77
2024/04/16 01:59:06;;;;;;;8.50;1.03;;;7.20;99.90;;;;;;5316143;26;20005;-76
2024/04/16 02:01:31;;;;;;;6.93;0.87;;;7.30;99.90;;;;;;5346505;26;20312;-77
2024/04/16 02:03:57;;;;;;;8.10;1.30;;;7.30;99.90;;;;;;5316023;26;20014;-79
2024/04/16 02:06:22;;;;;;;6.30;0.80;;;7.20;99.90;;;;;;5346671;26;20012;-81
2024/04/16 02:08:48;;;;;;;4.10;0.73;;;7.20;99.90;;;;;;5346431;26;20055;-77
2024/04/16 02:11:14;;;;;;;5.90;0.70;;;7.10;99.90;;;;;;5315972;26;19998;-77
2024/04/16 02:13:40;;;;;;;4.53;0.87;;;7.10;99.90;;;;;;5315411;26;20008;-76
2024/04/16 02:16:05;;;;;;;10.53;0.93;;;7.00;99.90;;;;;;5315825;26;20328;-77
2024/04/16 02:18:31;;;;;;;9.10;0.80;;;7.00;99.90;;;;;;5315934;26;20039;-78
2024/04/16 02:20:57;;;;;;;10.23;1.30;;;7.00;99.90;;;;;;5315830;26;20001;-77
2024/04/16 02:23:22;;;;;;;5.07;1.00;;;6.90;99.90;;;;;;5315759;26;20463;-80
2024/04/16 02:25:49;;;;;;;4.30;0.67;;;6.90;99.90;;;;;;5346085;26;20012;-78
2024/04/16 02:28:15;;;;;;;8.07;1.03;;;6.90;99.90;;;;;;5347051;26;20020;-77
2024/04/16 02:30:41;;;;;;;8.30;0.90;;;6.90;99.90;;;;;;5315552;26;20008;-80
2024/04/16 02:33:10;;;;;;;4.63;0.93;;;7.00;99.90;;;;;;5315499;26;20005;-80
2024/04/16 02:35:35;;;;;;;5.03;0.50;;;6.90;99.90;;;;;;5345810;26;20015;-79
2024/04/16 02:38:01;;;;;;;3.40;0.60;;;6.90;99.90;;;;;;5346157;26;20001;-84
2024/04/16 02:40:26;;;;;;;6.47;0.90;;;6.80;99.90;;;;;;5315486;26;20827;-81
2024/04/16 02:42:52;;;;;;;2.37;0.40;;;6.60;99.90;;;;;;5315244;26;20340;-87
2024/04/16 02:45:20;;;;;;;4.20;0.40;;;6.50;99.90;;;;;;5346166;26;20072;-77
2024/04/16 02:47:45;;;;;;;0.83;0.23;;;6.30;99.90;;;;;;5316538;26;20031;-77
2024/04/16 02:50:11;;;;;;;2.23;0.33;;;6.10;99.90;;;;;;5347432;26;20001;-81
2024/04/16 02:52:36;;;;;;;2.73;0.40;;;6.00;99.90;;;;;;5318602;26;20027;-78
2024/04/16 02:55:03;;;;;;;1.77;0.40;;;5.90;99.90;;;;;;5349506;26;20009;-81
2024/04/16 02:57:29;;;;;;;0.40;0.20;;;5.80;99.90;;;;;;5348987;26;20457;-75
2024/04/16 02:59:54;;;;;;;4.50;0.40;;;5.70;99.90;;;;;;5318428;26;20001;-76
2024/04/16 03:02:22;;;;;;;4.67;1.13;;;5.80;99.90;;;;;;5318362;26;20468;-76
2024/04/16 03:04:48;;;;;;;0.83;0.23;;;5.60;99.90;;;;;;5318338;26;20465;-80
2024/04/16 03:07:13;;;;;;;2.00;0.30;;;5.60;99.90;;;;;;5318303;26;20083;-77
2024/04/16 03:09:39;;;;;;;0.60;0.20;;;5.60;99.90;;;;;;5349025;26;20023;-78
2024/04/16 03:12:05;;;;;;;0.50;0.30;;;5.60;99.90;;;;;;5318284;26;20009;-79
2024/04/16 03:14:31;;;;;;;1.20;0.40;;;5.50;99.90;;;;;;5348833;26;20005;-76
2024/04/16 03:16:56;;;;;;;0.90;0.30;;;5.50;99.90;;;;;;5348447;26;20016;-77
2024/04/16 03:19:22;;;;;;;1.50;0.37;;;5.40;99.90;;;;;;5318154;26;20001;-77
2024/04/16 03:21:47;;;;;;;2.83;0.30;;;5.40;99.90;;;;;;5349324;26;20005;-79
2024/04/16 03:24:13;;;;;;;5.10;0.40;;;5.40;99.90;;;;;;5318475;26;20005;-79
2024/04/16 03:26:39;;;;;;;1.30;0.20;;;5.30;99.90;;;;;;5318137;26;20005;-79
2024/04/16 03:29:04;;;;;;;0.60;0.30;;;5.30;99.90;;;;;;5348584;26;20080;-78
2024/04/16 03:31:30;;;;;;;1.13;0.30;;;5.40;99.90;;;;;;5318470;26;20016;-77
2024/04/16 03:33:56;;;;;;;2.03;1.07;;;5.30;99.90;;;;;;5348691;26;20356;-77
2024/04/16 03:36:21;;;;;;;1.27;0.40;;;5.30;99.90;;;;;;5348598;26;20017;-78
2024/04/16 03:38:47;;;;;;;0.70;0.30;;;5.30;99.90;;;;;;5318182;26;20009;-78
2024/04/16 03:41:12;;;;;;;1.83;0.30;;;5.40;99.90;;;;;;5348101;26;20001;-78
2024/04/16 03:43:38;;;;;;;1.60;0.50;;;5.40;99.90;;;;;;5348975;26;20075;-79
2024/04/16 03:46:04;;;;;;;4.70;0.43;;;5.40;99.90;;;;;;5348663;26;20056;-79
2024/04/16 03:48:29;;;;;;;3.20;0.60;;;5.40;99.90;;;;;;5348665;26;20015;-81
2024/04/16 03:50:55;;;;;;;1.47;0.40;;;5.50;99.90;;;;;;5348463;26;20348;-80
2024/04/16 03:53:21;;;;;;;2.07;0.50;;;5.40;99.90;;;;;;5348172;26;20419;-78
2024/04/16 03:55:46;;;;;;;3.53;0.50;;;5.40;99.90;;;;;;5317855;26;20008;-79
2024/04/16 03:58:13;;;;;;;1.50;0.40;;;5.60;99.90;;;;;;5348243;26;20008;-81
2024/04/16 04:03:23;;;;;;;1.90;0.50;;;5.60;99.90;;;;;;5348861;26;20011;-80
2024/04/16 04:05:50;;;;;;;2.13;0.50;;;5.60;99.90;;;;;;5318818;26;20441;-79
2024/04/16 04:08:15;;;;;;;3.30;0.40;;;5.60;99.90;;;;;;5348358;26;20013;-79
2024/04/16 04:10:41;;;;;;;2.30;0.40;;;5.70;99.90;;;;;;5317624;26;20013;-78
2024/04/16 04:13:07;;;;;;;2.33;0.50;;;5.70;99.90;;;;;;5348631;26;20005;-78
2024/04/16 04:15:33;;;;;;;1.90;0.40;;;5.70;99.90;;;;;;5348126;26;20333;-79
2024/04/16 04:17:58;;;;;;;3.50;0.60;;;5.70;99.90;;;;;;5348306;26;20016;-79
2024/04/16 04:20:24;;;;;;;5.40;0.60;;;5.70;99.90;;;;;;5317340;26;20543;-77
2024/04/16 04:22:50;;;;;;;7.57;1.40;;;5.80;99.90;;;;;;5348105;26;20438;-79
2024/04/16 04:25:15;;;;;;;7.10;0.83;;;5.80;99.90;;;;;;5347659;26;20001;-81
2024/04/16 04:27:42;;;;;;;4.30;0.80;;;5.80;99.90;;;;;;5348369;26;20001;-79
2024/04/16 04:30:10;;;;;;;6.63;1.30;;;5.80;99.90;;;;;;5348098;26;20005;-78
2024/04/16 04:32:36;;;;;;;4.67;0.70;;;5.80;99.90;;;;;;5317440;26;20006;-77
2024/04/16 04:35:02;;;;;;;3.73;0.90;;;5.90;99.90;;;;;;5348028;26;20012;-79
2024/04/16 04:37:28;;;;;;;5.87;0.90;;;5.90;99.90;;;;;;5317017;26;20015;-77
2024/04/16 04:39:54;;;;;;;4.60;0.90;;;5.90;99.90;;;;;;5347709;26;20021;-78
2024/04/16 04:42:20;;;;;;;6.37;0.80;;;5.90;99.90;;;;;;5317154;26;20015;-83
2024/04/16 04:44:46;;;;;;;4.00;0.80;;;5.90;99.90;;;;;;5348909;26;20005;-80
2024/04/16 04:47:12;;;;;;;3.30;1.00;;;5.90;99.90;;;;;;5347460;26;20452;-77
2024/04/16 04:49:38;;;;;;;6.23;1.17;;;5.90;99.90;;;;;;5317042;26;20020;-82
2024/04/16 04:52:04;;;;;;;4.03;1.27;;;5.90;99.90;;;;;;5347862;26;20001;-78
2024/04/16 04:54:29;;;;;;;8.70;1.27;;;5.90;99.90;;;;;;5345650;26;19997;-80
2024/04/16 04:56:55;;;;;;;6.00;1.30;;;5.80;99.90;;;;;;5317224;26;19997;-78
2024/04/16 04:59:21;;;;;;;13.00;1.83;;;5.80;99.90;;;;;;5356444;26;20467;-78
2024/04/16 05:01:46;;;;;;;8.83;1.97;;;5.90;99.90;;;;;;5347441;26;19997;-77
2024/04/16 05:04:12;;;;;;;11.87;2.03;;;5.80;99.90;;;;;;5349080;26;20043;-77
2024/04/16 05:06:38;;;;;;;8.90;2.17;;;5.80;99.90;;;;;;5382108;26;20342;-76
2024/04/16 05:09:04;;;;;;;9.70;2.20;;;5.80;99.90;;;;;;5381017;26;20044;-77
2024/04/16 05:11:30;;;;;;;10.73;2.50;;;5.80;99.90;;;;;;5381550;26;20084;-76
2024/04/16 05:13:56;;;;;;;5.70;1.90;;;5.90;99.90;;;;;;5382384;26;20000;-79
2024/04/16 05:16:21;;;;;;;8.97;2.10;;;5.90;99.90;;;;;;5381027;26;20073;-77
2024/04/16 05:18:47;;;;;;;11.10;2.50;;;5.90;99.90;;;;;;5381334;26;20011;-78
2024/04/16 05:21:13;;;;;;;7.33;1.80;;;5.90;99.90;;;;;;5350830;26;19996;-83
2024/04/16 05:23:39;;;;;;;8.63;1.50;;;5.80;99.90;;;;;;5344540;26;20129;-85
2024/04/16 05:26:05;;;;;;;7.83;1.20;;;5.80;99.90;;;;;;5343132;26;19992;-75
2024/04/16 05:28:31;;;;;;;5.63;1.23;;;5.70;99.90;;;;;;5353146;26;19997;-77
2024/04/16 05:30:57;;;;;;;7.03;1.30;;;5.70;99.90;;;;;;5316020;26;20016;-82
2024/04/16 05:33:26;;;;;;;8.77;1.23;;;5.70;99.90;;;;;;5347077;26;19997;-78
2024/04/16 05:35:52;;;;;;;4.50;1.03;;;5.70;99.90;;;;;;5316316;26;19997;-77
2024/04/16 05:38:18;;;;;;;6.23;1.30;;;5.70;99.90;;;;;;5347285;26;20008;-78
2024/04/16 05:40:44;;;;;;;5.17;1.00;;;5.60;99.90;;;;;;5346887;26;20104;-79
2024/04/16 05:43:10;;;;;;;4.77;0.90;;;5.60;99.90;;;;;;5346873;26;20000;-77
2024/04/16 05:45:36;;;;;;;4.47;1.20;;;5.70;99.90;;;;;;5327901;26;20369;-78
2024/04/16 05:48:02;;;;;;;6.93;1.50;;;5.70;99.90;;;;;;5347851;26;20000;-79
2024/04/16 05:50:28;;;;;;;4.70;1.20;;;5.70;99.90;;;;;;5380661;26;20007;-77
2024/04/16 05:52:53;;;;;;;5.17;0.87;;;5.80;99.90;;;;;;5381323;26;20077;-77
2024/04/16 05:55:19;;;;;;;6.90;0.80;;;5.70;99.90;;;;;;5381185;26;20471;-77
2024/04/16 05:57:45;;;;;;;4.73;1.03;;;5.80;99.90;;;;;;5350163;26;20004;-78
2024/04/16 06:00:11;;;;;;;6.50;1.17;;;5.80;99.90;;;;;;5380993;26;20514;-78
2024/04/16 06:02:37;;;;;;;3.07;1.07;;;5.80;99.90;;;;;;5350309;26;20000;-78
2024/04/16 06:05:03;;;;;;;7.90;1.77;;;5.80;99.90;;;;;;5350299;26;20008;-80
2024/04/16 06:07:28;;;;;;;5.67;1.47;;;5.90;99.90;;;;;;5350463;26;20007;-77
2024/04/16 06:09:54;;;;;;;5.13;1.70;;;6.00;99.90;;;;;;5349861;26;20011;-79
2024/04/16 06:12:19;;;;;;;8.97;1.87;;;6.00;99.90;;;;;;5381299;26;19996;-77
2024/04/16 06:14:45;;;;;;;3.83;1.43;;;6.00;99.90;;;;;;5350477;26;20027;-75
2024/04/16 06:17:11;;;;;;;4.77;1.60;;;6.10;99.90;;;;;;5380907;26;20074;-77
2024/04/16 06:19:37;;;;;;;12.00;2.37;;;6.10;99.90;;;;;;5380871;26;20012;-77
2024/04/16 06:22:02;;;;;;;9.30;3.00;;;6.20;99.90;;;;;;5349850;26;20031;-76
2024/04/16 06:24:28;;;;;;;12.83;3.13;;;6.30;99.90;;;;;;5384407;26;19996;-77
2024/04/16 06:26:54;;;;;;;10.63;3.80;;;6.40;99.90;;;;;;5384149;26;20004;-81
2024/04/16 06:29:20;;;;;;;11.83;2.90;;;6.50;99.90;;;;;;5353093;26;20056;-78
2024/04/16 06:31:46;;;;;;;14.03;2.87;;;6.60;99.90;;;;;;5384624;26;20004;-76
2024/04/16 06:34:12;;;;;;;12.47;2.60;;;6.60;99.90;;;;;;5353061;26;20077;-80
2024/04/16 06:36:37;;;;;;;13.37;3.07;;;6.60;99.90;;;;;;5384281;26;20004;-82
2024/04/16 06:39:03;;;;;;;12.23;2.57;;;6.70;99.90;;;;;;5384159;26;19996;-82
2024/04/16 06:41:29;;;;;;;13.90;2.57;;;6.80;99.90;;;;;;5384666;26;20014;-78
2024/04/16 06:43:54;;;;;;;12.17;2.90;;;6.80;99.90;;;;;;5353489;26;20460;-82
2024/04/16 06:46:20;;;;;;;14.43;3.07;;;6.90;99.90;;;;;;5384608;26;20011;-79
2024/04/16 06:48:45;;;;;;;13.23;3.67;;;6.80;99.90;;;;;;5383981;26;20331;-78
2024/04/16 06:51:11;;;;;;;15.80;3.23;;;7.00;99.90;;;;;;5353234;26;20461;-79
2024/04/16 06:53:37;;;;;;;11.47;3.00;;;7.00;99.90;;;;;;5384694;26;20007;-83
2024/04/16 06:56:04;;;;;;;12.50;3.63;;;7.00;99.90;;;;;;5353458;26;20000;-83
2024/04/16 06:58:30;;;;;;;16.30;4.13;;;7.10;99.90;;;;;;5384261;26;20064;-80
2024/04/16 07:00:56;;;;;;;13.17;3.67;;;7.10;99.90;;;;;;5352957;26;20352;-84
2024/04/16 07:03:22;;;;;;;15.87;4.30;;;7.10;99.90;;;;;;5384037;26;20446;-81
2024/04/16 07:05:48;;;;;;;16.13;4.73;;;7.20;99.90;;;;;;5353218;26;20000;-82
2024/04/16 07:08:14;;;;;;;15.60;4.33;;;7.20;99.90;;;;;;5352992;26;20451;-82
2024/04/16 07:10:39;;;;;;;15.03;3.63;;;7.40;99.90;;;;;;5384575;26;20007;-83
2024/04/16 07:13:05;;;;;;;13.33;4.87;;;7.40;99.90;;;;;;5353177;26;20090;-80
2024/04/16 07:15:32;;;;;;;15.60;4.33;;;7.50;99.90;;;;;;5352827;26;20010;-78
2024/04/16 07:17:58;;;;;;;20.00;4.63;;;7.50;99.90;;;;;;5352936;26;20000;-79
2024/04/16 07:20:24;;;;;;;18.80;4.07;;;7.70;99.90;;;;;;5383864;26;20036;-76
2024/04/16 07:22:49;;;;;;;17.33;4.17;;;7.70;99.90;;;;;;5383949;26;20081;-81
2024/04/16 07:25:15;;;;;;;19.37;5.23;;;7.80;99.90;;;;;;5384332;26;20004;-81
2024/04/16 07:27:41;;;;;;;21.47;4.47;;;7.80;99.90;;;;;;5353452;26;20069;-86
2024/04/16 07:30:07;;;;;;;21.70;4.90;;;7.90;99.90;;;;;;5383533;26;19996;-84
2024/04/16 07:32:32;;;;;;;18.60;4.93;;;8.00;99.90;;;;;;5352676;26;19996;-82
2024/04/16 07:34:58;;;;;;;15.77;4.20;;;8.10;99.90;;;;;;5352500;26;20511;-84
2024/04/16 07:37:24;;;;;;;12.83;3.53;;;8.20;99.90;;;;;;5383978;26;20012;-82
2024/04/16 07:39:50;;;;;;;11.33;3.03;;;8.20;99.90;;;;;;5352903;26;20000;-83
2024/04/16 07:42:15;;;;;;;15.87;4.60;;;8.20;99.90;;;;;;5384164;26;20011;-82
2024/04/16 07:44:44;;;;;;;17.27;4.37;;;8.30;99.90;;;;;;5383750;26;20436;-84
2024/04/16 07:47:10;;;;;;;16.73;4.63;;;8.30;99.90;;;;;;5352966;26;20482;-86
2024/04/16 07:49:35;;;;;;;23.40;5.37;;;8.30;99.90;;;;;;5352516;26;20444;-82
2024/04/16 07:52:01;;;;;;;18.80;3.67;;;8.20;99.90;;;;;;5383907;26;20011;-82
2024/04/16 07:54:27;;;;;;;12.07;3.57;;;8.20;99.90;;;;;;5383591;26;20424;-83
2024/04/16 07:56:53;;;;;;;14.87;3.57;;;8.20;99.90;;;;;;5352259;26;20036;-80
2024/04/16 07:59:22;;;;;;;19.60;3.47;;;8.10;99.90;;;;;;5352187;26;20462;-82
2024/04/16 08:01:48;;;;;;;12.57;3.30;;;8.10;99.90;;;;;;5383609;26;20069;-82
2024/04/16 08:04:14;;;;;;;16.83;3.43;;;8.10;99.90;;;;;;5383811;26;20008;-83
2024/04/16 08:06:39;;;;;;;19.27;4.73;;;8.10;99.90;;;;;;5383255;26;20004;-84
2024/04/16 08:09:05;;;;;;;20.13;4.47;;;8.10;99.90;;;;;;5383159;26;20472;-81
2024/04/16 08:11:31;;;;;;;20.43;4.67;;;8.20;99.90;;;;;;5383629;26;19996;-83
2024/04/16 08:13:57;;;;;;;24.00;5.00;;;8.20;99.90;;;;;;5352436;26;20000;-82
2024/04/16 08:16:25;;;;;;;24.67;4.37;;;8.20;99.90;;;;;;5383281;26;20004;-81
2024/04/16 08:18:50;;;;;;;14.93;3.73;;;8.30;99.90;;;;;;5351835;26;20069;-84
2024/04/16 08:21:16;;;;;;;19.13;4.00;;;8.50;99.90;;;;;;5352032;26;20012;-82
2024/04/16 08:23:42;;;;;;;20.80;3.30;;;8.50;99.90;;;;;;5383279;26;20439;-83
2024/04/16 08:26:07;;;;;;;24.13;4.50;;;8.50;99.90;;;;;;5383147;26;20065;-79
2024/04/16 08:28:33;;;;;;;16.57;3.80;;;8.60;99.90;;;;;;5383280;26;20004;-82
2024/04/16 08:31:01;;;;;;;21.60;3.17;;;8.60;99.90;;;;;;5351944;26;20004;-83
2024/04/16 08:33:27;;;;;;;11.50;2.53;;;8.70;99.90;;;;;;5383321;26;20000;-81
2024/04/16 08:35:52;;;;;;;9.63;2.23;;;8.70;99.90;;;;;;5352142;26;20343;-86
2024/04/16 08:38:19;;;;;;;9.17;2.40;;;8.80;99.90;;;;;;5352508;26;20050;-80
2024/04/16 08:40:45;;;;;;;9.23;2.27;;;8.80;99.90;;;;;;5383426;26;20043;-81
2024/04/16 08:43:12;;;;;;;13.93;1.90;;;8.80;99.90;;;;;;5352020;26;20447;-83
2024/04/16 08:45:38;;;;;;;9.17;1.83;;;8.80;99.90;;;;;;5381979;26;20490;-85
2024/04/16 08:48:05;;;;;;;10.37;1.60;;;8.90;99.90;;;;;;5351932;26;20036;-84
2024/04/16 08:50:33;;;;;;;8.77;1.50;;;8.90;99.90;;;;;;5345764;26;20001;-82
2024/04/16 08:53:00;;;;;;;12.07;1.93;;;8.90;99.90;;;;;;5348271;26;20456;-78
2024/04/16 08:55:30;;;;;;;6.13;1.17;;;9.00;99.90;;;;;;5348118;26;20001;-83
2024/04/16 08:57:56;;;;;;;9.70;1.53;;;9.20;99.90;;;;;;5347979;26;20488;-80
2024/04/16 09:00:22;;;;;;;8.57;1.27;;;9.20;99.90;;;;;;5345732;26;20016;-83
2024/04/16 09:02:51;;;;;;;10.43;1.53;;;9.10;99.90;;;;;;5345560;26;20003;-81
2024/04/16 09:05:17;;;;;;;10.10;0.93;;;9.10;99.90;;;;;;5346023;26;20020;-80
2024/04/16 09:07:44;;;;;;;9.67;1.37;;;9.20;99.90;;;;;;5347682;26;20075;-83
2024/04/16 09:10:20;;;;;;;5.47;1.20;;;9.20;99.90;;;;;;5348405;26;20012;-84
2024/04/16 09:12:47;;;;;;;7.37;0.90;;;9.20;99.90;;;;;;5346034;26;20005;-84
2024/04/16 09:15:14;;;;;;;7.10;0.65;;;9.40;99.90;;;;;;5345276;26;20083;-83
2024/04/16 09:17:49;;;;;;;9.07;0.77;;;9.40;99.90;;;;;;5347938;26;20027;-82
2024/04/16 09:20:20;;;;;;;5.63;1.40;;;9.50;99.90;;;;;;5345623;26;20013;-80
2024/04/16 09:22:50;;;;;;;6.77;0.70;;;9.60;99.90;;;;;;5346082;26;20016;-83
2024/04/16 09:25:17;;;;;;;3.80;0.63;;;9.70;99.90;;;;;;5343273;26;20337;-73
2024/04/16 09:27:52;;;;;;;7.65;1.77;;;9.90;99.90;;;;;;5344570;26;20452;-81
2024/04/16 09:30:17;;;;;;;7.03;1.40;;;9.90;99.90;;;;;;5345475;26;20005;-83
2024/04/16 09:32:55;;;;;;;2.45;0.40;;;9.90;99.90;;;;;;5347656;26;20013;-85
2024/04/16 09:35:28;;;;;;;4.18;0.65;;;9.90;99.90;;;;;;5345689;26;20076;-84
2024/04/16 09:38:07;;;;;;;2.87;0.60;;;9.90;99.90;;;;;;5345793;26;20078;-82
2024/04/16 09:40:33;;;;;;;5.00;0.70;;;9.90;99.90;;;;;;5345512;26;19999;-82
2024/04/16 09:43:00;;;;;;;6.57;0.75;;;10.00;99.90;;;;;;5347420;26;19997;-80
2024/04/16 09:45:27;;;;;;;3.63;0.60;;;10.10;99.90;;;;;;5347093;26;20001;-83
2024/04/16 09:47:54;;;;;;;3.20;0.52;;;10.30;99.90;;;;;;5345355;26;19997;-81
2024/04/16 09:50:21;;;;;;;6.03;0.60;;;10.30;99.90;;;;;;5345479;26;20071;-87
2024/04/16 09:52:55;;;;;;;4.63;0.60;;;10.40;99.90;;;;;;5347809;26;20071;-81
2024/04/16 09:55:24;;;;;;;6.85;0.60;;;10.60;99.90;;;;;;5347443;26;20463;-84
2024/04/16 09:57:51;;;;;;;4.28;0.60;;;10.60;99.90;;;;;;5349853;26;20005;-85
2024/04/16 10:00:18;;;;;;;9.40;0.98;;;10.50;99.90;;;;;;5348425;26;20015;-82
2024/04/16 10:02:45;;;;;;;2.30;0.57;;;10.50;99.90;;;;;;5350436;26;20033;-83
2024/04/16 10:05:13;;;;;;;2.40;0.40;;;10.40;99.90;;;;;;5350223;26;20015;-82
2024/04/16 10:07:41;;;;;;;4.03;0.40;;;10.30;99.90;;;;;;5350087;26;20005;-83
2024/04/16 10:10:08;;;;;;;2.90;0.50;;;10.40;99.90;;;;;;5348492;26;20083;-82
2024/04/16 10:12:34;;;;;;;3.47;0.40;;;10.40;99.90;;;;;;5349497;26;20083;-83
2024/04/16 10:15:05;;;;;;;2.90;0.43;;;10.40;99.90;;;;;;5350364;26;20016;-81
2024/04/16 10:17:32;;;;;;;3.78;0.30;;;10.60;99.90;;;;;;5350227;26;20019;-83
2024/04/16 10:19:58;;;;;;;4.00;0.40;;;10.70;99.90;;;;;;5348648;26;20083;-81
2024/04/16 10:22:24;;;;;;;5.50;0.50;;;10.90;99.90;;;;;;5348332;26;20009;-80
2024/04/16 10:24:53;;;;;;;1.90;0.30;;;11.20;99.90;;;;;;5348201;26;20077;-82
2024/04/16 10:27:24;;;;;;;3.63;0.30;;;11.20;99.90;;;;;;5347951;26;20005;-82
2024/04/16 10:30:07;;;;;;;2.30;0.20;;;11.10;99.90;;;;;;5349473;26;20015;-81
2024/04/16 10:32:33;;;;;;;2.88;0.30;;;11.00;99.90;;;;;;5350332;26;20001;-83
2024/04/16 10:35:01;;;;;;;2.00;0.20;;;10.90;99.90;;;;;;5349704;26;20462;-84
2024/04/16 10:37:33;;;;;;;1.52;0.20;;;10.70;99.90;;;;;;5349838;26;20020;-83
2024/04/16 10:39:59;;;;;;;2.33;0.20;;;10.60;99.90;;;;;;5350126;26;20000;-81
2024/04/16 10:42:29;;;;;;;3.30;0.43;;;10.50;99.90;;;;;;5347872;26;20471;-83
2024/04/16 10:44:56;;;;;;;0.63;0.20;;;10.40;99.90;;;;;;5348113;26;20393;-83
2024/04/16 10:47:25;;;;;;;2.90;0.50;;;10.30;99.90;;;;;;5347775;26;20091;-80
2024/04/16 10:49:52;;;;;;;4.72;0.30;;;10.30;99.90;;;;;;5352757;26;20004;-82
2024/04/16 10:52:20;;;;;;;2.40;0.40;;;10.80;99.90;;;;;;5353611;26;20000;-83
2024/04/16 10:54:50;;;;;;;2.85;0.20;;;11.20;99.90;;;;;;5352791;26;20004;-82
2024/04/16 10:57:18;;;;;;;2.38;0.30;;;11.40;99.90;;;;;;5384171;26;20018;-81
2024/04/16 10:59:45;;;;;;;3.08;0.28;;;11.50;99.90;;;;;;5353779;26;20394;-83
2024/04/16 11:02:11;;;;;;;1.77;0.25;;;11.80;99.90;;;;;;5384757;26;20036;-82
2024/04/16 11:04:38;;;;;;;2.28;0.30;;;12.10;99.90;;;;;;5384743;26;20000;-83
2024/04/16 11:07:04;;;;;;;1.42;0.20;;;12.70;99.90;;;;;;5353749;26;19997;-82
2024/04/16 11:09:31;;;;;;;2.25;0.35;;;13.20;99.90;;;;;;5351859;26;20004;-82
2024/04/16 11:11:56;;;;;;;2.90;0.65;;;13.80;99.90;;;;;;5353039;26;20004;-83
2024/04/16 11:14:23;;;;;;;4.03;0.52;;;14.40;99.90;;;;;;5353017;26;20023;-81
2024/04/16 11:16:50;;;;;;;3.20;0.40;;;15.00;99.30;;;;;;5353086;26;20004;-83
2024/04/16 11:19:17;;;;;;;2.60;0.22;;;15.20;96.40;;;;;;5353088;26;20467;-80
2024/04/16 11:21:43;;;;;;;2.47;0.60;;;15.10;93.60;;;;;;5353186;26;20364;-83
2024/04/16 11:24:09;;;;;;;3.85;0.28;;;15.00;92.70;;;;;;5383638;26;20004;-82
2024/04/16 11:26:37;;;;;;;1.88;0.30;;;14.90;92.00;;;;;;5383913;26;20073;-84
2024/04/16 11:29:03;;;;;;;2.40;0.30;;;14.70;90.10;;;;;;5384027;26;20001;-83
2024/04/16 11:31:29;;;;;;;2.05;0.30;;;14.50;89.90;;;;;;5352997;26;20004;-83
2024/04/16 11:33:55;;;;;;;1.88;0.22;;;14.20;87.50;;;;;;5383720;26;20012;-81
2024/04/16 11:36:21;;;;;;;1.20;0.20;;;14.00;89.10;;;;;;5352633;26;20364;-81
2024/04/16 11:38:48;;;;;;;3.97;0.50;;;13.90;90.50;;;;;;5352147;26;20018;-85
2024/04/16 11:41:17;;;;;;;1.80;0.30;;;13.90;91.00;;;;;;5353264;26;20011;-81
2024/04/16 11:43:44;;;;;;;5.07;0.45;;;14.30;90.50;;;;;;5383755;26;20451;-83
2024/04/16 11:46:13;;;;;;;3.17;0.40;;;14.80;91.20;;;;;;5352511;26;19996;-82
2024/04/16 11:48:38;;;;;;;1.90;0.50;;;15.60;91.30;;;;;;5352487;26;20343;-82
2024/04/16 11:51:06;;;;;;;1.35;0.30;;;16.40;90.40;;;;;;5383464;26;20000;-81
2024/04/16 11:53:32;;;;;;;3.55;0.40;;;17.10;87.60;;;;;;5351791;26;20014;-82
2024/04/16 11:55:59;;;;;;;1.77;0.40;;;17.40;85.60;;;;;;5384064;26;19996;-87
2024/04/16 11:58:24;;;;;;;2.67;0.40;;;18.00;85.30;;;;;;5384172;26;20046;-82
2024/04/16 12:00:52;;;;;;;2.75;0.30;;;18.60;84.80;;;;;;5383552;26;20014;-83
2024/04/16 12:03:17;;;;;;;1.48;0.30;;;19.30;81.70;;;;;;5383238;26;20027;-83
2024/04/16 12:05:43;;;;;;;3.78;0.55;;;19.80;75.80;;;;;;5383077;26;20011;-79
2024/04/16 12:08:09;;;;;;;2.55;0.22;;;20.10;73.10;;;;;;5352115;26;20000;-82
2024/04/16 12:10:34;;;;;;;4.55;0.30;;;20.20;70.10;;;;;;5352399;26;20008;-84
2024/04/16 12:13:00;;;;;;;3.88;0.30;;;20.00;66.10;;;;;;5352274;26;20011;-80
2024/04/16 12:15:26;;;;;;;2.55;0.43;;;19.60;63.80;;;;;;5352481;26;20011;-82
2024/04/16 12:17:51;;;;;;;1.70;0.30;;;18.90;62.50;;;;;;5353118;26;20039;-84
2024/04/16 12:20:17;;;;;;;1.40;0.30;;;18.40;63.20;;;;;;5382895;26;20015;-85
2024/04/16 12:22:43;;;;;;;2.55;0.40;;;18.30;64.80;;;;;;5354052;26;20011;-88
2024/04/16 12:25:09;;;;;;;3.40;0.30;;;18.30;64.90;;;;;;5384603;26;20000;-85
2024/04/16 12:27:34;;;;;;;3.03;0.30;;;18.70;66.50;;;;;;5353437;26;20000;-85
2024/04/16 12:30:00;;;;;;;1.83;0.22;;;19.00;65.20;;;;;;5384713;26;19996;-87
2024/04/16 12:32:26;;;;;;;1.13;0.32;;;19.40;64.10;;;;;;5352914;26;20051;-87
2024/04/16 12:34:51;;;;;;;1.67;0.50;;;19.20;63.10;;;;;;5353077;26;20031;-84
2024/04/16 12:37:17;;;;;;;1.92;0.28;;;18.40;64.20;;;;;;5352802;26;20004;-82
2024/04/16 12:39:42;;;;;;;0.80;0.20;;;17.70;67.30;;;;;;5383051;26;20376;-80
2024/04/16 12:42:08;;;;;;;1.38;0.20;;;17.10;68.10;;;;;;5382483;26;20074;-81
2024/04/16 12:44:34;;;;;;;1.80;0.30;;;16.70;68.90;;;;;;5383150;26;19996;-82
2024/04/16 12:46:59;;;;;;;1.08;0.20;;;16.30;69.90;;;;;;5351523;26;20008;-79
2024/04/16 12:49:25;;;;;;;1.15;0.20;;;16.10;71.20;;;;;;5382766;26;20004;-84